Time;durP1;ratioP1;P1;durP2;ratioP2;P2;SDS_P1;SDS_P2;PMS_P1;PMS_P2;Temp;Humidity;BMP_temperature;BMP_pressure;BME280_temperature;BME280_humidity;BME280_pressure;Samples;Min_cycle;Max_cycle;Signal;HPM_P1;HPM_P2
2022/09/25 00:02:13;;;;;;;11.15;8.15;;;;;;;6.93;100.00;93468.72;5108740;28;20048;-72
2022/09/25 00:04:40;;;;;;;11.98;8.70;;;;;;;6.92;100.00;93465.38;5108929;28;20423;-72
2022/09/25 00:07:07;;;;;;;11.75;8.00;;;;;;;6.86;100.00;93460.19;5108784;28;20140;-72
2022/09/25 00:09:34;;;;;;;11.82;7.93;;;;;;;6.77;100.00;93456.97;5108622;28;20552;-72
2022/09/25 00:12:00;;;;;;;10.45;7.93;;;;;;;6.66;100.00;93460.75;5108769;28;20051;-72
2022/09/25 00:14:27;;;;;;;13.07;8.55;;;;;;;6.60;100.00;93451.25;5108930;28;20116;-73
2022/09/25 00:16:54;;;;;;;13.63;9.40;;;;;;;6.65;100.00;93459.19;5113758;28;20052;-72
2022/09/25 00:22:07;;;;;;;11.70;8.38;;;;;;;6.52;100.00;93454.69;5115518;28;20046;-72
2022/09/25 00:24:34;;;;;;;14.52;9.80;;;;;;;6.13;100.00;93416.56;5115603;28;20044;-72
2022/09/25 00:27:01;;;;;;;15.32;9.90;;;;;;;6.40;100.00;93456.94;5115268;28;20051;-73
2022/09/25 00:29:29;;;;;;;12.48;9.40;;;;;;;6.44;100.00;93463.28;5115380;28;20039;-72
2022/09/25 00:31:56;;;;;;;13.95;9.32;;;;;;;6.44;100.00;93458.16;5115181;28;20051;-72
2022/09/25 00:34:24;;;;;;;13.07;9.52;;;;;;;6.35;100.00;93451.56;5115512;28;20047;-72
2022/09/25 00:36:51;;;;;;;14.07;9.48;;;;;;;6.39;100.00;93451.03;5115084;28;20044;-73
2022/09/25 00:39:18;;;;;;;13.30;8.77;;;;;;;6.35;100.00;93444.69;5115305;28;20036;-73
2022/09/25 00:41:44;;;;;;;12.63;8.63;;;;;;;6.34;100.00;93438.00;5115447;28;20043;-72
2022/09/25 00:44:49;;;;;;;13.95;9.02;;;;;;;6.35;100.00;93444.69;5115258;28;20103;-72
2022/09/25 00:47:20;;;;;;;14.30;8.68;;;;;;;6.24;100.00;93437.47;5115199;28;20040;-73
2022/09/25 00:49:49;;;;;;;15.35;9.07;;;;;;;6.24;100.00;93437.47;5115466;28;20108;-73
2022/09/25 00:52:16;;;;;;;13.80;9.05;;;;;;;6.16;100.00;93433.28;5114900;28;20092;-73
2022/09/25 00:54:47;;;;;;;15.20;9.40;;;;;;;6.02;100.00;93434.84;5115374;28;20436;-72
2022/09/25 00:57:18;;;;;;;14.80;10.00;;;;;;;6.05;100.00;93429.41;5115363;28;20452;-72
2022/09/25 00:59:49;;;;;;;17.33;10.02;;;;;;;6.03;100.00;93417.78;5115331;28;20092;-73
2022/09/25 01:02:21;;;;;;;20.73;11.68;;;;;;;5.98;100.00;93421.63;5114648;28;20101;-72
2022/09/25 01:04:49;;;;;;;20.48;10.90;;;;;;;5.92;100.00;93422.34;5115313;28;20104;-72
2022/09/25 01:07:17;;;;;;;16.75;11.48;;;;;;;5.87;100.00;93422.88;5115115;28;20059;-72
2022/09/25 01:09:44;;;;;;;16.85;11.45;;;;;;;5.85;100.00;93419.72;5114984;28;20088;-72
2022/09/25 01:12:11;;;;;;;17.95;11.60;;;;;;;5.83;100.00;93419.06;5115328;28;20047;-73
2022/09/25 01:14:39;;;;;;;18.73;11.00;;;;;;;5.85;100.00;93418.91;5114939;28;20104;-72
2022/09/25 01:17:13;;;;;;;17.58;11.00;;;;;;;5.87;100.00;93414.41;5115283;28;20047;-73
2022/09/25 01:19:57;;;;;;;18.15;11.32;;;;;;;5.85;100.00;93419.72;5115077;28;20487;-72
2022/09/25 01:22:36;;;;;;;15.02;9.70;;;;;;;5.81;100.00;93410.03;5114912;28;20091;-72
2022/09/25 01:25:11;;;;;;;12.85;9.25;;;;;;;5.66;100.00;93394.72;5114860;28;20089;-72
2022/09/25 01:27:55;;;;;;;13.50;9.52;;;;;;;5.70;100.00;93403.59;5112242;28;20050;-72
2022/09/25 01:30:24;;;;;;;14.00;8.85;;;;;;;5.73;100.00;93406.59;5111579;28;20544;-72
2022/09/25 01:32:58;;;;;;;17.88;9.43;;;;;;;5.81;100.00;93412.56;5111552;28;20047;-72
2022/09/25 01:35:45;;;;;;;15.57;9.55;;;;;;;5.89;100.00;93413.28;5111746;28;20051;-72
2022/09/25 01:38:24;;;;;;;15.23;8.93;;;;;;;5.99;100.00;93414.78;5111311;28;20662;-72
2022/09/25 01:40:58;;;;;;;13.82;9.02;;;;;;;6.05;100.00;93414.09;5111840;28;20063;-72
2022/09/25 01:43:30;;;;;;;16.88;9.68;;;;;;;6.04;100.00;93409.97;5111363;28;20609;-72
2022/09/25 01:46:02;;;;;;;13.63;8.63;;;;;;;5.74;100.00;93412.50;5110972;28;20040;-72
2022/09/25 01:48:32;;;;;;;13.85;9.55;;;;;;;5.62;100.00;93422.31;5111390;28;20039;-72
2022/09/25 01:51:02;;;;;;;15.00;10.15;;;;;;;5.29;100.00;93425.94;5110969;28;20044;-72
2022/09/25 01:53:34;;;;;;;16.63;10.90;;;;;;;4.82;100.00;93415.75;5111478;28;20460;-72
2022/09/25 01:56:05;;;;;;;19.98;12.07;;;;;;;4.76;100.00;93423.25;5110994;28;20093;-72
2022/09/25 01:58:38;;;;;;;19.95;13.65;;;;;;;4.68;100.00;93422.34;5111315;28;20039;-72
2022/09/25 02:01:11;;;;;;;22.23;15.73;;;;;;;4.61;100.00;93431.63;5110729;28;20093;-72
2022/09/25 02:03:43;;;;;;;30.55;16.15;;;;;;;4.51;100.00;93421.66;5110670;28;20418;-72
2022/09/25 02:06:15;;;;;;;26.52;15.68;;;;;;;4.36;100.00;93416.47;5111115;28;20036;-72
2022/09/25 02:08:47;;;;;;;28.73;18.45;;;;;;;4.31;100.00;93426.38;5110849;28;20054;-72
2022/09/25 02:11:14;;;;;;;24.90;17.35;;;;;;;4.05;100.00;93416.44;5111045;28;20505;-72
2022/09/25 02:13:48;;;;;;;32.15;19.17;;;;;;;4.04;100.00;93417.41;5108042;28;20145;-72
2022/09/25 02:16:21;;;;;;;31.05;19.88;;;;;;;4.10;100.00;93425.16;5110741;28;20079;-72
2022/09/25 02:21:44;;;;;;;32.35;21.70;;;;;;;4.14;100.00;93430.72;5110928;28;20113;-72
2022/09/25 02:24:19;;;;;;;35.90;23.50;;;;;;;3.90;100.00;93401.88;5110652;28;20043;-72
2022/09/25 02:26:46;;;;;;;31.38;20.80;;;;;;;3.97;100.00;93414.69;5110616;28;20047;-72
2022/09/25 02:29:14;;;;;;;36.30;22.95;;;;;;;4.01;100.00;93437.09;5110686;28;20044;-72
2022/09/25 02:31:45;;;;;;;29.98;20.77;;;;;;;4.09;100.00;93435.50;5110775;28;20553;-72
2022/09/25 02:34:12;;;;;;;33.08;21.20;;;;;;;3.90;100.00;93409.50;5110474;28;20039;-72
2022/09/25 02:36:38;;;;;;;31.27;20.27;;;;;;;4.04;100.00;93427.56;5110381;28;20117;-72
2022/09/25 02:39:08;;;;;;;33.42;20.52;;;;;;;4.11;100.00;93431.84;5110084;28;20089;-72
2022/09/25 02:41:47;;;;;;;36.58;21.35;;;;;;;4.12;100.00;93427.56;5110074;28;20043;-72
2022/09/25 02:44:24;;;;;;;30.20;20.17;;;;;;;4.13;100.00;93429.91;5110456;28;20132;-72
2022/09/25 02:47:02;;;;;;;29.60;19.30;;;;;;;4.26;100.00;93429.38;5110064;28;20547;-72
2022/09/25 02:49:39;;;;;;;30.33;20.67;;;;;;;4.34;100.00;93428.56;5110343;28;20047;-72
2022/09/25 02:52:10;;;;;;;29.20;19.63;;;;;;;4.33;100.00;93405.84;5110357;28;20058;-73
2022/09/25 02:54:45;;;;;;;29.35;19.45;;;;;;;4.45;100.00;93416.44;5109680;28;20055;-72
2022/09/25 02:57:16;;;;;;;26.70;18.10;;;;;;;4.61;100.00;93416.34;5109918;28;20047;-72
2022/09/25 02:59:48;;;;;;;29.08;18.67;;;;;;;4.81;100.00;93416.72;5110205;28;20051;-72
2022/09/25 03:02:17;;;;;;;28.80;18.20;;;;;;;4.97;100.00;93414.22;5109741;28;20051;-72
2022/09/25 03:04:48;;;;;;;29.10;17.48;;;;;;;5.13;100.00;93413.34;5107237;28;20491;-73
2022/09/25 03:07:15;;;;;;;27.67;17.75;;;;;;;5.25;100.00;93423.91;5109877;28;20445;-73
2022/09/25 03:09:45;;;;;;;28.17;17.70;;;;;;;5.41;100.00;93405.94;5109725;28;20036;-72
2022/09/25 03:12:13;;;;;;;24.17;15.98;;;;;;;5.44;100.00;93409.88;5109578;28;20050;-72
2022/09/25 03:14:39;;;;;;;29.05;17.23;;;;;;;5.53;100.00;93398.66;5109940;28;20040;-72
2022/09/25 03:17:08;;;;;;;24.83;17.20;;;;;;;5.46;100.00;93387.59;5109517;28;20391;-72
2022/09/25 03:19:37;;;;;;;30.42;17.88;;;;;;;5.60;100.00;93396.22;5109412;28;20527;-72
2022/09/25 03:22:04;;;;;;;25.00;17.38;;;;;;;5.64;100.00;93394.13;5109723;28;20093;-73
2022/09/25 03:24:31;;;;;;;23.83;17.60;;;;;;;5.63;100.00;93393.31;5109597;28;20096;-73
2022/09/25 03:26:57;;;;;;;28.77;18.73;;;;;;;5.67;100.00;93394.56;5109338;28;20048;-72
2022/09/25 03:29:24;;;;;;;26.38;17.73;;;;;;;5.72;100.00;93401.66;5109413;28;20100;-73
2022/09/25 03:31:51;;;;;;;26.95;19.10;;;;;;;5.72;100.00;93399.91;5109498;28;20101;-73
2022/09/25 03:34:19;;;;;;;26.13;18.25;;;;;;;5.73;100.00;93411.69;5109305;28;20047;-73
2022/09/25 03:36:47;;;;;;;23.55;17.00;;;;;;;5.64;100.00;93410.19;5109022;28;20043;-72
2022/09/25 03:39:16;;;;;;;26.85;16.00;;;;;;;5.61;100.00;93408.00;5109142;28;20039;-73
2022/09/25 03:41:43;;;;;;;27.52;18.17;;;;;;;5.32;100.00;93414.63;5109356;28;20055;-73
2022/09/25 03:44:10;;;;;;;28.25;18.10;;;;;;;5.03;100.00;93409.25;5109011;28;20497;-73
2022/09/25 03:46:37;;;;;;;29.70;18.52;;;;;;;5.07;100.00;93422.44;5108984;28;20036;-73
2022/09/25 03:49:04;;;;;;;28.52;19.15;;;;;;;4.80;100.00;93417.69;5109146;28;20050;-72
2022/09/25 03:51:33;;;;;;;27.90;19.50;;;;;;;4.65;100.00;93409.19;5108417;28;20540;-72
2022/09/25 03:54:02;;;;;;;29.50;19.40;;;;;;;4.41;100.00;93424.38;5109219;28;20406;-72
2022/09/25 03:56:30;;;;;;;28.35;18.63;;;;;;;4.23;100.00;93414.47;5108856;28;20552;-72
2022/09/25 03:58:57;;;;;;;28.50;18.20;;;;;;;4.18;100.00;93424.34;5108636;28;20503;-72
2022/09/25 04:01:25;;;;;;;29.90;18.65;;;;;;;4.15;100.00;93419.56;5108785;28;20120;-72
2022/09/25 04:03:52;;;;;;;30.10;17.45;;;;;;;3.84;100.00;93384.75;5108964;28;20460;-72
2022/09/25 04:06:22;;;;;;;31.08;20.48;;;;;;;3.83;100.00;93427.16;5108829;28;20036;-72
2022/09/25 04:08:50;;;;;;;30.65;20.50;;;;;;;3.38;100.00;93391.16;5108747;28;20122;-72
2022/09/25 04:11:19;;;;;;;30.83;19.63;;;;;;;3.56;100.00;93418.16;5108641;28;20055;-72
2022/09/25 04:13:46;;;;;;;30.75;19.20;;;;;;;3.51;100.00;93431.31;5108624;28;20047;-72
2022/09/25 04:16:15;;;;;;;31.50;19.75;;;;;;;3.56;100.00;93413.06;5108837;28;20112;-73
2022/09/25 04:18:42;;;;;;;28.58;19.85;;;;;;;3.73;100.00;93418.91;5108641;28;20388;-72
2022/09/25 04:21:11;;;;;;;30.90;19.13;;;;;;;3.84;100.00;93422.88;5108810;28;20500;-72
2022/09/25 04:23:38;;;;;;;26.10;18.08;;;;;;;3.88;100.00;93404.56;5108294;28;20047;-72
2022/09/25 04:26:06;;;;;;;28.42;18.25;;;;;;;4.04;100.00;93418.19;5108773;28;20047;-72
2022/09/25 04:28:34;;;;;;;26.70;19.50;;;;;;;4.14;100.00;93421.34;5108891;28;20040;-72
2022/09/25 04:31:02;;;;;;;28.77;18.17;;;;;;;4.24;100.00;93425.41;5108667;28;20036;-72
2022/09/25 04:33:46;;;;;;;26.20;17.42;;;;;;;4.40;100.00;93438.06;5108837;28;20040;-72
2022/09/25 04:36:14;;;;;;;27.58;18.10;;;;;;;4.44;100.00;93435.22;5108733;28;20078;-72
2022/09/25 04:38:41;;;;;;;25.55;18.33;;;;;;;4.45;100.00;93437.59;5108649;28;20036;-72
2022/09/25 04:41:08;;;;;;;26.88;18.33;;;;;;;4.29;100.00;93440.97;5108766;28;20047;-72
2022/09/25 04:43:36;;;;;;;28.70;21.02;;;;;;;4.00;100.00;93427.91;5108824;28;20048;-72
2022/09/25 04:46:04;;;;;;;28.90;19.98;;;;;;;4.06;100.00;93436.59;5108804;28;20405;-72
2022/09/25 04:48:33;;;;;;;27.20;18.65;;;;;;;4.03;100.00;93431.06;5108268;28;20487;-72
2022/09/25 04:51:00;;;;;;;28.15;18.58;;;;;;;4.15;100.00;93432.28;5108431;28;20580;-72
2022/09/25 04:53:28;;;;;;;34.85;22.70;;;;;;;4.04;100.00;93420.75;5108589;28;20093;-72
2022/09/25 04:55:55;;;;;;;41.58;27.00;;;;;;;3.96;100.00;93398.69;5108415;28;20536;-72
2022/09/25 04:58:22;;;;;;;79.80;44.75;;;;;;;4.29;100.00;93423.19;5108554;28;20138;-72
2022/09/25 05:00:50;;;;;;;68.07;37.60;;;;;;;4.34;100.00;93415.84;5108178;28;20039;-72
2022/09/25 05:03:16;;;;;;;45.03;25.33;;;;;;;4.37;100.00;93435.88;5109905;28;20105;-72
2022/09/25 05:05:43;;;;;;;56.95;33.53;;;;;;;4.43;100.00;93426.00;5112313;28;20044;-72
2022/09/25 05:08:11;;;;;;;39.20;26.45;;;;;;;4.47;100.00;93434.88;5106369;28;20503;-72
2022/09/25 05:10:39;;;;;;;36.83;23.63;;;;;;;4.51;100.00;93426.75;5091324;28;20047;-72
2022/09/25 05:13:08;;;;;;;24.98;17.85;;;;;;;4.58;100.00;93421.00;5097940;28;20108;-74
2022/09/25 05:15:34;;;;;;;27.58;18.20;;;;;;;4.93;100.00;93432.41;5111828;28;20547;-72
2022/09/25 05:18:04;;;;;;;25.80;15.57;;;;;;;5.08;100.00;93437.56;5128528;27;20043;-72
2022/09/25 05:20:31;;;;;;;21.50;15.85;;;;;;;5.17;100.00;93434.94;5108191;27;20092;-73
2022/09/25 05:22:59;;;;;;;30.05;18.45;;;;;;;5.07;100.00;93430.06;5110448;27;20096;-72
2022/09/25 05:25:26;;;;;;;28.70;18.40;;;;;;;4.98;100.00;93418.34;5096295;28;20056;-73
2022/09/25 05:27:54;;;;;;;23.58;15.13;;;;;;;5.04;100.00;93423.56;5130004;27;20042;-72
2022/09/25 05:30:21;;;;;;;24.92;17.17;;;;;;;5.04;100.00;93425.31;5126448;27;20050;-72
2022/09/25 05:32:49;;;;;;;25.40;19.60;;;;;;;5.27;100.00;93422.00;5129832;27;20047;-72
2022/09/25 05:35:18;;;;;;;31.67;16.98;;;;;;;5.21;100.00;93420.91;5132476;27;20074;-72
2022/09/25 05:37:44;;;;;;;24.20;15.27;;;;;;;5.34;100.00;93410.91;5116130;27;20044;-72
2022/09/25 05:40:14;;;;;;;22.85;16.20;;;;;;;5.45;100.00;93419.09;5105465;27;20047;-72
2022/09/25 05:42:42;;;;;;;25.48;16.65;;;;;;;5.60;100.00;93412.28;5118400;27;20054;-73
2022/09/25 05:45:10;;;;;;;23.00;16.55;;;;;;;5.81;100.00;93425.31;5131949;27;20411;-72
2022/09/25 05:47:37;;;;;;;23.80;15.93;;;;;;;6.00;100.00;93426.56;5124343;27;20057;-72
2022/09/25 05:50:04;;;;;;;24.00;17.00;;;;;;;6.21;100.00;93425.09;5130620;27;20111;-72
2022/09/25 05:52:32;;;;;;;24.17;15.60;;;;;;;6.38;100.00;93434.13;5132051;27;20130;-72
2022/09/25 05:54:59;;;;;;;21.40;15.43;;;;;;;6.60;100.00;93438.50;5101801;27;20048;-72
2022/09/25 05:57:26;;;;;;;24.73;16.58;;;;;;;6.79;100.00;93440.50;5127673;27;20510;-72
2022/09/25 05:59:53;;;;;;;26.00;18.40;;;;;;;6.92;100.00;93434.75;5120669;27;20150;-72
2022/09/25 06:02:20;;;;;;;25.83;17.00;;;;;;;7.11;100.00;93427.44;5129210;27;20099;-72
2022/09/25 06:04:48;;;;;;;21.83;16.38;;;;;;;7.26;100.00;93427.38;5122400;27;20051;-72
2022/09/25 06:07:14;;;;;;;22.42;16.23;;;;;;;7.41;100.00;93429.06;5093890;28;20044;-72
2022/09/25 06:09:42;;;;;;;25.85;19.13;;;;;;;7.57;100.00;93418.59;5095272;28;20052;-72
2022/09/25 06:12:09;;;;;;;25.10;16.67;;;;;;;7.74;100.00;93420.88;5115783;27;20099;-72
2022/09/25 06:14:36;;;;;;;21.65;13.57;;;;;;;7.96;100.00;93423.38;5131394;27;20392;-72
2022/09/25 06:17:03;;;;;;;18.63;12.48;;;;;;;8.19;100.00;93432.53;5131701;27;20047;-72
2022/09/25 06:19:30;;;;;;;14.98;9.82;;;;;;;8.50;100.00;93438.97;5125147;27;20039;-72
2022/09/25 06:21:57;;;;;;;11.40;7.15;;;;;;;8.78;100.00;93438.91;5114309;27;20089;-72
2022/09/25 06:24:24;;;;;;;6.75;4.28;;;;;;;9.13;100.00;93448.28;5130682;27;20092;-72
2022/09/25 06:26:52;;;;;;;5.78;3.35;;;;;;;9.49;100.00;93451.44;5131589;27;20095;-72
2022/09/25 06:29:19;;;;;;;5.50;3.28;;;;;;;9.85;100.00;93445.13;5121992;27;20046;-72
2022/09/25 06:31:45;;;;;;;10.68;3.40;;;;;;;10.23;100.00;93448.81;5112323;27;20051;-72
2022/09/25 06:34:12;;;;;;;5.32;3.15;;;;;;;10.56;99.93;93442.06;5103872;27;20044;-72
2022/09/25 06:36:39;;;;;;;13.98;7.97;;;;;;;10.78;97.32;93446.91;5125208;27;20088;-73
2022/09/25 06:39:06;;;;;;;41.92;22.77;;;;;;;10.95;95.92;93450.56;5131583;27;20103;-72
2022/09/25 06:41:32;;;;;;;12.90;9.00;;;;;;;11.14;92.64;93457.56;5131417;27;20050;-73
2022/09/25 06:44:01;;;;;;;7.80;4.20;;;;;;;11.26;90.94;93450.00;5131308;27;20054;-72
2022/09/25 06:46:28;;;;;;;22.20;11.63;;;;;;;11.35;89.76;93451.34;5131158;27;20040;-72
2022/09/25 06:48:56;;;;;;;56.58;33.88;;;;;;;11.44;88.33;93454.44;5130854;27;20631;-73
2022/09/25 06:51:26;;;;;;;20.90;13.18;;;;;;;11.54;88.72;93453.97;5131299;27;20053;-72
2022/09/25 06:53:53;;;;;;;16.15;7.60;;;;;;;11.62;88.17;93440.88;5109282;27;20056;-73
2022/09/25 06:56:20;;;;;;;36.35;19.55;;;;;;;11.84;88.14;93443.84;5094798;27;20133;-73
2022/09/25 06:58:47;;;;;;;15.68;8.95;;;;;;;12.10;88.07;93443.84;5097171;27;20039;-73
2022/09/25 07:01:15;;;;;;;11.82;7.00;;;;;;;12.36;85.47;93452.31;5089030;28;20495;-73
2022/09/25 07:03:44;;;;;;;10.98;6.22;;;;;;;12.62;84.40;93461.53;5089430;28;20044;-73
2022/09/25 07:06:12;;;;;;;20.20;14.13;;;;;;;12.93;82.97;93469.31;5089364;28;20058;-73
2022/09/25 07:08:40;;;;;;;6.95;4.47;;;;;;;13.12;81.81;93469.25;5092045;28;20097;-73
2022/09/25 07:11:07;;;;;;;9.57;5.50;;;;;;;13.37;79.32;93479.44;5091014;28;20079;-73
2022/09/25 07:13:36;;;;;;;9.98;5.97;;;;;;;13.66;78.16;93484.81;5089233;28;20048;-73
2022/09/25 07:16:04;;;;;;;8.60;5.30;;;;;;;13.92;76.92;93494.97;5089639;28;20056;-72
2022/09/25 07:18:34;;;;;;;22.60;15.63;;;;;;;14.18;75.86;93509.25;5122115;27;20043;-72
2022/09/25 07:21:02;;;;;;;6.57;4.97;;;;;;;14.39;74.87;93507.88;5114201;27;20100;-73
2022/09/25 07:23:30;;;;;;;7.20;4.15;;;;;;;14.56;74.76;93487.31;5121869;27;20146;-72
2022/09/25 07:25:57;;;;;;;6.82;3.30;;;;;;;14.85;72.20;93504.72;5129685;27;20047;-72
2022/09/25 07:28:24;;;;;;;5.80;3.00;;;;;;;15.03;71.79;93508.94;5130697;27;20368;-73
2022/09/25 07:30:51;;;;;;;5.43;2.40;;;;;;;15.22;71.19;93506.97;5130249;27;20440;-73
2022/09/25 07:33:18;;;;;;;3.10;2.25;;;;;;;15.39;69.98;93500.25;5130161;27;20083;-73
2022/09/25 07:35:46;;;;;;;5.72;2.83;;;;;;;15.59;70.91;93492.03;5120828;27;20063;-72
2022/09/25 07:38:13;;;;;;;6.13;2.72;;;;;;;15.75;69.31;93486.09;5120089;27;20380;-72
2022/09/25 07:40:40;;;;;;;6.13;3.50;;;;;;;15.93;69.29;93480.97;5130403;27;20046;-73
2022/09/25 07:43:07;;;;;;;9.75;2.25;;;;;;;16.00;68.21;93484.97;5130337;27;20107;-73
2022/09/25 07:45:34;;;;;;;3.42;2.05;;;;;;;16.03;67.60;93473.34;5129968;27;20099;-73
2022/09/25 07:48:02;;;;;;;5.50;2.20;;;;;;;15.96;66.91;93439.06;5130286;27;20059;-72
2022/09/25 07:50:31;;;;;;;4.57;2.13;;;;;;;16.16;66.70;93452.28;5121800;27;20457;-73
2022/09/25 07:52:59;;;;;;;3.90;2.42;;;;;;;16.17;66.18;93429.75;5112923;27;20046;-74
2022/09/25 07:55:27;;;;;;;3.30;2.15;;;;;;;16.41;65.45;93445.88;5130141;27;20388;-73
2022/09/25 07:57:56;;;;;;;3.55;2.10;;;;;;;16.61;65.00;93459.34;5129686;27;20446;-73
2022/09/25 08:00:23;;;;;;;10.95;2.97;;;;;;;16.70;64.18;93453.50;5129811;27;20433;-72
2022/09/25 08:02:56;;;;;;;5.13;2.50;;;;;;;16.79;63.45;93447.84;5127666;27;20058;-73
2022/09/25 08:05:22;;;;;;;4.18;2.85;;;;;;;16.99;63.09;93454.31;5108602;28;20229;-73
2022/09/25 08:07:49;;;;;;;4.60;2.40;;;;;;;17.14;62.35;93461.50;5109461;28;20044;-73
2022/09/25 08:10:17;;;;;;;5.70;2.10;;;;;;;17.23;62.37;93449.66;5097506;28;20044;-72
2022/09/25 08:12:44;;;;;;;4.13;2.05;;;;;;;17.34;61.95;93451.31;5088665;28;20048;-73
2022/09/25 08:15:12;;;;;;;3.63;1.90;;;;;;;17.50;61.81;93443.69;5090950;28;20048;-73
2022/09/25 08:17:39;;;;;;;4.28;1.85;;;;;;;17.56;60.12;93445.28;5088320;28;20055;-73
2022/09/25 08:20:07;;;;;;;4.70;2.00;;;;;;;17.68;61.09;93444.34;5100192;28;20093;-73
2022/09/25 08:22:34;;;;;;;4.30;2.22;;;;;;;17.82;60.22;93435.06;5101903;28;20048;-72
2022/09/25 08:25:01;;;;;;;5.35;2.30;;;;;;;17.93;60.27;93427.34;5103273;28;20043;-73
2022/09/25 08:27:29;;;;;;;4.55;2.08;;;;;;;18.07;60.18;93427.72;5105427;28;20055;-72
2022/09/25 08:29:55;;;;;;;4.13;1.73;;;;;;;18.22;59.27;93420.03;5107943;28;20040;-72
2022/09/25 08:32:22;;;;;;;8.45;1.95;;;;;;;18.31;59.04;93412.53;5107832;28;20497;-73
2022/09/25 08:34:49;;;;;;;4.63;2.17;;;;;;;18.41;58.45;93404.78;5103285;28;20092;-74
2022/09/25 08:37:18;;;;;;;6.68;2.72;;;;;;;18.59;57.99;93420.97;5106116;28;20478;-73
2022/09/25 08:39:45;;;;;;;6.05;2.05;;;;;;;18.66;57.20;93423.34;5109181;28;20051;-73
2022/09/25 08:42:19;;;;;;;3.13;1.80;;;;;;;18.75;57.00;93411.38;5111811;28;20444;-74
2022/09/25 08:49:00;;;;;;;5.47;1.98;;;;;;;18.79;55.54;93428.06;5106226;28;20075;-74
2022/09/25 08:50:26;;;;;;;3.13;1.83;;;;;;;19.12;55.00;93425.31;5133652;27;20517;-73
2022/09/25 08:53:02;;;;;;;3.92;1.92;;;;;;;19.32;54.19;93408.16;5133927;27;20043;-73
2022/09/25 08:58:23;;;;;;;4.47;1.90;;;;;;;19.66;54.51;93407.66;5132326;27;20051;-73
2022/09/25 09:00:53;;;;;;;4.47;2.08;;;;;;;19.91;54.08;93406.06;5133719;27;20043;-73
2022/09/25 09:03:23;;;;;;;4.43;2.03;;;;;;;19.99;52.56;93400.34;5133019;27;20511;-73
2022/09/25 09:05:56;;;;;;;4.68;2.60;;;;;;;20.04;52.48;93399.53;5133910;27;20112;-73
2022/09/25 09:08:27;;;;;;;10.25;2.63;;;;;;;20.09;52.00;93396.94;5119747;27;20136;-73
2022/09/25 09:10:58;;;;;;;6.32;2.10;;;;;;;20.09;51.64;93383.88;5133440;27;20039;-73
2022/09/25 09:13:30;;;;;;;3.22;1.60;;;;;;;20.23;51.25;93388.56;5133253;27;20494;-73
2022/09/25 09:16:06;;;;;;;3.33;1.88;;;;;;;20.30;50.51;93394.28;5133056;27;20088;-73
2022/09/25 09:18:37;;;;;;;3.47;1.70;;;;;;;20.45;50.77;93388.22;5133381;27;20055;-73
2022/09/25 09:21:13;;;;;;;7.13;2.70;;;;;;;20.55;50.54;93387.41;5116570;27;20100;-73
2022/09/25 09:23:49;;;;;;;5.35;1.70;;;;;;;20.53;50.08;93382.47;5125923;27;20495;-73
2022/09/25 09:26:23;;;;;;;3.60;2.00;;;;;;;20.74;48.13;93386.78;5132859;27;20092;-73
2022/09/25 09:29:18;;;;;;;2.63;1.60;;;;;;;20.81;48.58;93382.84;5133387;27;20436;-74
2022/09/25 09:31:56;;;;;;;16.52;6.80;;;;;;;20.99;48.80;93378.06;5109943;27;20495;-73
2022/09/25 09:34:48;;;;;;;8.05;3.38;;;;;;;20.93;47.89;93369.47;5133140;27;20096;-73
2022/09/25 09:37:21;;;;;;;4.40;2.65;;;;;;;20.76;49.18;93333.28;5132730;27;20050;-73
2022/09/25 09:39:57;;;;;;;15.20;5.85;;;;;;;21.01;49.21;93364.75;5132730;27;20051;-73
2022/09/25 09:42:32;;;;;;;7.95;3.90;;;;;;;20.97;48.12;93364.53;5132567;27;20494;-73
2022/09/25 09:45:09;;;;;;;11.93;5.25;;;;;;;20.72;47.93;93353.13;5132909;27;20126;-73
2022/09/25 09:47:46;;;;;;;12.73;6.05;;;;;;;20.76;48.60;93354.16;5132843;27;20054;-73
2022/09/25 09:50:29;;;;;;;6.97;2.85;;;;;;;20.72;48.00;93355.75;5132226;27;20043;-74
2022/09/25 09:53:02;;;;;;;2.90;1.90;;;;;;;20.68;48.24;93350.28;5132218;27;20047;-73
2022/09/25 09:55:37;;;;;;;5.78;2.95;;;;;;;20.64;49.05;93344.03;5132500;27;20092;-73
2022/09/25 09:58:10;;;;;;;6.43;3.20;;;;;;;20.59;48.94;93345.91;5132512;27;20414;-73
2022/09/25 10:00:39;;;;;;;5.15;2.80;;;;;;;20.51;48.53;93344.63;5132609;27;20035;-73
2022/09/25 10:03:14;;;;;;;5.22;2.15;;;;;;;20.60;48.96;93331.81;5131952;27;20055;-73
2022/09/25 10:05:45;;;;;;;5.65;3.10;;;;;;;20.63;49.40;93339.06;5132443;27;20054;-73
2022/09/25 10:08:12;;;;;;;4.45;2.88;;;;;;;20.69;49.46;93338.03;5121968;27;20043;-73
2022/09/25 10:10:41;;;;;;;5.18;2.45;;;;;;;20.70;49.89;93327.28;5132428;27;20039;-73
2022/09/25 10:13:18;;;;;;;6.15;2.17;;;;;;;20.97;49.43;93333.19;5132289;27;20066;-74
2022/09/25 10:15:50;;;;;;;5.20;2.20;;;;;;;21.16;48.72;93332.53;5132435;27;20047;-73
2022/09/25 10:18:19;;;;;;;4.28;1.92;;;;;;;21.31;47.54;93329.81;5132022;27;20483;-73
2022/09/25 10:20:54;;;;;;;3.65;1.85;;;;;;;21.25;47.43;93330.91;5117791;27;20164;-73
2022/09/25 10:23:33;;;;;;;6.90;3.28;;;;;;;21.33;46.26;93329.50;5112182;27;20047;-72
2022/09/25 10:26:00;;;;;;;5.30;2.80;;;;;;;21.41;46.89;93315.88;5131744;27;20046;-73
2022/09/25 10:28:29;;;;;;;3.45;2.03;;;;;;;21.49;45.57;93304.03;5132139;27;20148;-73
2022/09/25 10:30:57;;;;;;;4.40;2.30;;;;;;;21.66;45.43;93318.53;5131831;27;20047;-74
2022/09/25 10:33:27;;;;;;;3.15;1.95;;;;;;;21.57;43.06;93310.50;5131758;27;20402;-74
2022/09/25 10:35:55;;;;;;;7.35;2.92;;;;;;;21.72;43.42;93306.97;5131913;27;20043;-73
2022/09/25 10:38:32;;;;;;;3.90;1.70;;;;;;;21.88;42.61;93308.38;5131838;27;20039;-73
2022/09/25 10:41:03;;;;;;;5.13;1.67;;;;;;;21.92;42.40;93300.75;5131638;27;20043;-73
2022/09/25 10:43:29;;;;;;;6.18;2.03;;;;;;;22.14;42.23;93294.25;5131846;27;20122;-73
2022/09/25 10:50:09;;;;;;;6.07;2.00;;;;;;;22.25;41.21;93295.69;5131228;27;20116;-73
2022/09/25 10:52:05;;;;;;;3.60;1.60;;;;;;;22.25;39.97;93298.28;5131463;27;20050;-73
2022/09/25 10:54:32;;;;;;;4.05;1.75;;;;;;;22.33;40.12;93298.72;5131578;27;20051;-73
2022/09/25 10:56:59;;;;;;;4.90;1.92;;;;;;;22.42;40.35;93289.19;5131104;27;20091;-73
2022/09/25 10:59:28;;;;;;;3.88;1.85;;;;;;;22.57;39.86;93283.00;5131479;27;20078;-73
2022/09/25 11:01:56;;;;;;;4.95;1.88;;;;;;;22.74;39.34;93285.13;5130726;27;20062;-73
2022/09/25 11:04:27;;;;;;;10.48;2.47;;;;;;;22.77;38.60;93278.53;5131504;27;20190;-73
2022/09/25 11:06:58;;;;;;;3.20;1.58;;;;;;;22.83;38.08;93262.44;5129949;27;20084;-73
2022/09/25 11:09:27;;;;;;;4.95;1.70;;;;;;;22.91;39.47;93274.13;5108793;28;20434;-74
2022/09/25 11:12:04;;;;;;;3.47;1.70;;;;;;;22.97;39.42;93272.22;5106520;28;20666;-74
2022/09/25 11:14:34;;;;;;;4.07;2.08;;;;;;;22.91;40.06;93244.56;5110100;28;20449;-74
2022/09/25 11:17:04;;;;;;;4.50;1.58;;;;;;;23.21;39.43;93266.84;5109928;28;20051;-74
2022/09/25 11:19:34;;;;;;;4.93;1.60;;;;;;;23.21;38.92;93256.38;5110272;28;20092;-73
2022/09/25 11:22:16;;;;;;;3.65;2.33;;;;;;;23.26;38.54;93262.56;5101289;28;20052;-73
2022/09/25 11:24:58;;;;;;;4.45;1.60;;;;;;;23.25;38.20;93258.41;5090381;28;20120;-74
2022/09/25 11:27:33;;;;;;;3.30;2.35;;;;;;;23.25;36.79;93266.25;5091476;28;20052;-73
2022/09/25 11:30:05;;;;;;;2.47;1.20;;;;;;;23.26;37.50;93260.75;5100241;27;20123;-74
2022/09/25 11:32:39;;;;;;;2.65;1.63;;;;;;;23.32;37.25;93257.00;5119605;27;20126;-75
2022/09/25 11:35:26;;;;;;;3.35;1.50;;;;;;;23.44;37.87;93268.84;5121822;27;20047;-74
2022/09/25 11:38:03;;;;;;;2.83;1.27;;;;;;;23.61;37.29;93268.31;5130423;27;20453;-74
2022/09/25 11:43:36;;;;;;;2.65;1.45;;;;;;;23.63;36.90;93229.47;5106177;27;20522;-74
2022/09/25 11:46:11;;;;;;;1.90;1.10;;;;;;;23.93;37.05;93245.66;5088702;28;20040;-74
2022/09/25 11:48:50;;;;;;;2.47;1.42;;;;;;;23.91;37.31;93241.78;5088617;28;20044;-74
2022/09/25 11:51:34;;;;;;;4.82;1.98;;;;;;;23.86;37.34;93240.03;5088655;28;20503;-74
2022/09/25 11:54:14;;;;;;;3.00;1.80;;;;;;;23.81;37.23;93237.50;5088638;28;20048;-73
2022/09/25 11:56:48;;;;;;;5.60;1.80;;;;;;;23.37;37.87;93224.66;5088967;28;20044;-74